createdAt,value
2018-09-07T00:01:27.575Z,19.70
2018-09-07T00:03:57.280Z,19.50
2018-09-07T00:06:26.368Z,19.30
2018-09-07T00:08:55.506Z,19.10
2018-09-07T00:11:24.660Z,19.00
2018-09-07T00:13:53.871Z,18.80
2018-09-07T00:16:23.855Z,18.80
2018-09-07T00:18:54.127Z,18.90
2018-09-07T00:21:24.224Z,19.10
2018-09-07T00:23:53.913Z,19.20
2018-09-07T00:26:23.388Z,19.20
2018-09-07T00:28:52.767Z,19.20
2018-09-07T00:31:21.948Z,19.30
2018-09-07T00:33:51.790Z,19.40
2018-09-07T00:36:20.857Z,19.40
2018-09-07T00:38:49.949Z,19.30
2018-09-07T00:41:19.028Z,19.30
2018-09-07T00:43:48.268Z,19.30
2018-09-07T00:46:17.358Z,19.30
2018-09-07T00:48:46.504Z,19.40
2018-09-07T00:51:15.601Z,19.20
2018-09-07T00:53:44.707Z,19.20
2018-09-07T00:56:13.871Z,19.40
2018-09-07T00:58:42.931Z,19.40
2018-09-07T01:01:12.011Z,19.30
2018-09-07T01:03:41.703Z,19.10
2018-09-07T01:06:10.911Z,19.10
2018-09-07T01:08:40.084Z,18.90
2018-09-07T01:11:09.306Z,18.90
2018-09-07T01:13:38.476Z,19.00
2018-09-07T01:16:07.943Z,19.10
2018-09-07T01:18:37.342Z,19.10
2018-09-07T01:21:06.553Z,19.00
2018-09-07T01:23:35.719Z,19.00
2018-09-07T01:26:04.899Z,18.90
2018-09-07T01:28:34.022Z,18.80
2018-09-07T01:31:03.135Z,18.60
2018-09-07T01:33:32.375Z,18.60
2018-09-07T01:36:02.739Z,18.60
2018-09-07T01:38:34.264Z,18.50
2018-09-07T01:41:05.045Z,18.50
2018-09-07T01:43:34.171Z,18.60
2018-09-07T01:46:03.688Z,18.70
2018-09-07T01:48:32.884Z,18.60
2018-09-07T01:51:02.001Z,18.70
2018-09-07T01:53:31.709Z,18.70
2018-09-07T01:56:00.819Z,18.90
2018-09-07T01:58:30.840Z,19.00
2018-09-07T02:00:59.997Z,19.10
2018-09-07T02:03:30.320Z,19.00
2018-09-07T02:05:59.624Z,19.10
2018-09-07T02:08:30.247Z,19.10
2018-09-07T02:11:00.384Z,19.10
2018-09-07T02:13:30.899Z,19.00
2018-09-07T02:16:00.059Z,18.90
2018-09-07T02:18:29.609Z,19.00
2018-09-07T02:20:58.747Z,19.00
2018-09-07T02:23:27.859Z,19.00
2018-09-07T02:25:58.179Z,19.00
2018-09-07T02:28:27.260Z,18.80
2018-09-07T02:30:56.941Z,18.80
2018-09-07T02:33:26.070Z,18.70
2018-09-07T02:35:55.153Z,18.80
2018-09-07T02:38:25.443Z,18.70
2018-09-07T02:40:54.572Z,18.70
2018-09-07T02:43:24.335Z,18.60
2018-09-07T02:45:53.460Z,18.70
2018-09-07T02:48:22.601Z,18.60
2018-09-07T02:50:52.423Z,18.60
2018-09-07T02:53:21.509Z,18.60
2018-09-07T02:55:50.596Z,18.60
2018-09-07T02:58:19.815Z,18.80
2018-09-07T03:00:48.920Z,18.80
2018-09-07T03:03:18.470Z,18.90
2018-09-07T03:05:48.120Z,19.00
2018-09-07T03:08:17.921Z,19.00
2018-09-07T03:10:47.038Z,19.00
2018-09-07T03:13:16.132Z,19.00
2018-09-07T03:15:45.240Z,19.00
2018-09-07T03:18:14.364Z,18.90
2018-09-07T03:20:43.644Z,18.90
2018-09-07T03:23:12.766Z,18.90
2018-09-07T03:25:41.847Z,18.90
2018-09-07T03:28:10.935Z,18.80
2018-09-07T03:30:40.011Z,18.80
2018-09-07T03:33:09.164Z,18.70
2018-09-07T03:35:38.277Z,18.70
2018-09-07T03:38:07.565Z,18.70
2018-09-07T03:40:36.764Z,18.70
2018-09-07T03:43:05.977Z,18.60
2018-09-07T03:45:35.089Z,18.60
2018-09-07T03:48:04.171Z,18.70
2018-09-07T03:50:33.913Z,18.60
2018-09-07T03:53:03.273Z,18.60
2018-09-07T03:55:32.368Z,18.60
2018-09-07T03:58:02.235Z,18.60
2018-09-07T04:00:31.323Z,18.60
2018-09-07T04:03:00.996Z,18.60
2018-09-07T04:05:30.110Z,18.50
2018-09-07T04:07:59.222Z,18.40
2018-09-07T04:10:28.347Z,18.30
2018-09-07T04:12:57.439Z,18.40
2018-09-07T04:15:26.668Z,18.20
2018-09-07T04:17:55.839Z,18.20
2018-09-07T04:20:24.935Z,18.20
2018-09-07T04:22:54.152Z,18.20
2018-09-07T04:25:24.249Z,18.30
2018-09-07T04:27:53.551Z,18.30
2018-09-07T04:30:23.396Z,18.30
2018-09-07T04:32:54.507Z,18.30
2018-09-07T04:35:23.622Z,18.40
2018-09-07T04:37:52.816Z,18.30
2018-09-07T04:40:21.961Z,18.20
2018-09-07T04:42:51.314Z,18.30
2018-09-07T04:45:20.429Z,18.30
2018-09-07T04:47:49.651Z,18.30
2018-09-07T04:50:18.856Z,18.30
2018-09-07T04:52:47.992Z,18.20
2018-09-07T04:55:17.086Z,18.20
2018-09-07T04:57:46.299Z,17.90
2018-09-07T05:00:15.545Z,17.90
2018-09-07T05:02:44.687Z,18.00
2018-09-07T05:05:14.294Z,18.00
2018-09-07T05:07:43.443Z,18.10
2018-09-07T05:10:12.681Z,18.20
2018-09-07T05:12:41.823Z,18.30
2018-09-07T05:15:11.187Z,18.20
2018-09-07T05:17:40.306Z,18.00
2018-09-07T05:20:10.255Z,17.80
2018-09-07T05:22:39.350Z,17.90
2018-09-07T05:25:08.531Z,18.00
2018-09-07T05:27:38.728Z,18.10
2018-09-07T05:30:08.914Z,18.10
2018-09-07T05:32:38.036Z,18.10
2018-09-07T05:35:07.212Z,18.10
2018-09-07T05:37:36.311Z,18.20
2018-09-07T05:40:05.691Z,18.30
2018-09-07T05:42:34.773Z,18.30
2018-09-07T05:45:04.010Z,18.30
2018-09-07T05:47:33.148Z,18.30
2018-09-07T05:50:02.910Z,18.30
2018-09-07T05:52:31.979Z,18.40
2018-09-07T05:55:01.296Z,18.50
2018-09-07T05:57:30.526Z,18.40
2018-09-07T05:59:59.674Z,18.40
2018-09-07T06:02:28.821Z,18.40
2018-09-07T06:05:01.300Z,18.20
2018-09-07T06:07:31.426Z,18.20
2018-09-07T06:10:00.855Z,18.10
2018-09-07T06:12:30.430Z,18.20
2018-09-07T06:14:59.705Z,18.10
2018-09-07T06:17:28.834Z,18.10
2018-09-07T06:19:58.033Z,18.10
2018-09-07T06:22:27.131Z,18.20
2018-09-07T06:24:56.261Z,18.40
2018-09-07T06:27:25.505Z,18.40
2018-09-07T06:29:54.906Z,18.60
2018-09-07T06:32:25.607Z,18.50
2018-09-07T06:34:54.730Z,18.50
2018-09-07T06:37:23.931Z,18.60
2018-09-07T06:39:53.240Z,18.60
2018-09-07T06:42:22.496Z,18.40
2018-09-07T06:44:51.679Z,18.30
2018-09-07T06:47:20.820Z,18.40
2018-09-07T06:49:50.097Z,18.60
2018-09-07T06:52:19.385Z,18.60
2018-09-07T06:54:48.432Z,18.60
2018-09-07T06:57:17.550Z,18.60
2018-09-07T06:59:47.228Z,18.80
2018-09-07T07:02:16.369Z,18.90
2018-09-07T07:04:45.475Z,18.90
2018-09-07T07:07:14.556Z,18.90
2018-09-07T07:09:43.663Z,19.10
2018-09-07T07:12:12.743Z,19.10
2018-09-07T07:14:41.938Z,18.90
2018-09-07T07:17:11.168Z,18.50
2018-09-07T07:19:40.329Z,18.50
2018-09-07T07:22:09.480Z,18.60
2018-09-07T07:24:38.583Z,18.30
2018-09-07T07:27:08.719Z,18.60
2018-09-07T07:29:37.855Z,18.70
2018-09-07T07:32:06.996Z,18.90
2018-09-07T07:34:36.131Z,19.00
2018-09-07T07:37:05.847Z,18.90
2018-09-07T07:39:34.927Z,19.00
2018-09-07T07:42:04.681Z,19.20
2018-09-07T07:44:33.813Z,19.20
2018-09-07T07:47:03.779Z,19.30
2018-09-07T07:49:32.902Z,19.50
2018-09-07T07:52:02.648Z,19.30
2018-09-07T07:54:31.831Z,19.10
2018-09-07T07:57:01.111Z,19.20
2018-09-07T07:59:30.241Z,19.20
2018-09-07T08:02:00.712Z,19.20
2018-09-07T08:04:29.932Z,19.20
2018-09-07T08:07:02.374Z,19.30
2018-09-07T08:09:35.867Z,19.40
2018-09-07T08:12:05.393Z,19.30
2018-09-07T08:14:34.635Z,19.50
2018-09-07T08:17:03.849Z,19.80
2018-09-07T08:19:33.008Z,19.80
2018-09-07T08:22:02.144Z,19.80
2018-09-07T08:24:31.941Z,19.50
2018-09-07T08:27:01.193Z,19.70
2018-09-07T08:29:30.417Z,19.60
2018-09-07T08:31:59.492Z,19.60
2018-09-07T08:34:28.623Z,19.70
2018-09-07T08:36:57.768Z,19.80
2018-09-07T08:39:26.955Z,20.00
2018-09-07T08:41:57.462Z,20.10
2018-09-07T08:44:27.099Z,20.20
2018-09-07T08:46:56.716Z,20.20
2018-09-07T08:49:26.754Z,20.10
2018-09-07T08:51:56.013Z,20.10
2018-09-07T08:54:25.157Z,20.00
2018-09-07T08:56:54.872Z,19.60
2018-09-07T08:59:24.035Z,19.50
2018-09-07T09:01:53.871Z,19.50
2018-09-07T09:04:23.008Z,19.40
2018-09-07T09:06:52.158Z,19.30
2018-09-07T09:09:21.268Z,19.00
2018-09-07T09:11:50.394Z,18.90
2018-09-07T09:14:19.592Z,18.90
2018-09-07T09:16:48.727Z,18.80
2018-09-07T09:19:17.947Z,18.90
2018-09-07T09:21:47.143Z,18.90
2018-09-07T09:24:16.519Z,18.80
2018-09-07T09:26:45.965Z,18.80
2018-09-07T09:29:15.889Z,18.70
2018-09-07T09:31:45.381Z,18.30
2018-09-07T09:34:14.725Z,18.30
2018-09-07T09:36:43.856Z,18.20
2018-09-07T09:39:13.373Z,18.10
2018-09-07T09:41:42.466Z,17.80
2018-09-07T09:44:11.617Z,17.80
2018-09-07T09:46:40.852Z,17.80
2018-09-07T09:49:10.000Z,17.70
2018-09-07T09:51:39.616Z,17.50
2018-09-07T09:54:09.791Z,17.40
2018-09-07T09:56:39.649Z,17.40
2018-09-07T09:59:09.503Z,17.40
2018-09-07T10:01:43.824Z,17.40
2018-09-07T10:04:17.253Z,17.50
2018-09-07T10:06:47.090Z,17.50
2018-09-07T10:09:16.197Z,17.40
2018-09-07T10:11:45.388Z,17.30
2018-09-07T10:14:14.528Z,17.30
2018-09-07T10:16:45.052Z,17.50
2018-09-07T10:19:14.289Z,17.70
2018-09-07T10:21:43.494Z,17.80
2018-09-07T10:24:13.192Z,17.70
2018-09-07T10:26:42.655Z,17.80
2018-09-07T10:29:12.698Z,17.90
2018-09-07T10:31:41.904Z,17.70
2018-09-07T10:34:11.125Z,17.80
2018-09-07T10:36:40.440Z,17.90
2018-09-07T10:39:10.425Z,18.30
2018-09-07T10:41:40.069Z,19.00
2018-09-07T10:44:09.228Z,20.20
2018-09-07T10:46:38.427Z,21.80
2018-09-07T10:49:07.631Z,23.10
2018-09-07T10:51:36.830Z,23.60
2018-09-07T10:54:06.440Z,23.40
2018-09-07T10:56:36.196Z,23.30
2018-09-07T10:59:05.471Z,24.10
2018-09-07T11:01:34.623Z,24.00
2018-09-07T11:04:03.865Z,24.70
2018-09-07T11:06:34.275Z,24.00
2018-09-07T11:09:04.213Z,23.00
2018-09-07T11:11:33.477Z,22.10
2018-09-07T11:14:02.644Z,21.30
2018-09-07T11:16:31.700Z,20.90
2018-09-07T11:19:01.551Z,21.20
2018-09-07T11:21:30.716Z,22.30
2018-09-07T11:23:59.900Z,23.30
2018-09-07T11:26:29.588Z,23.80
2018-09-07T11:28:58.765Z,24.60
2018-09-07T11:31:27.936Z,25.60
2018-09-07T11:33:57.572Z,25.40
2018-09-07T11:36:26.844Z,25.50
2018-09-07T11:38:56.044Z,26.40
2018-09-07T11:41:25.653Z,27.10
2018-09-07T11:43:55.785Z,27.40
2018-09-07T11:46:25.545Z,28.00
2018-09-07T11:48:54.632Z,29.00
2018-09-07T11:51:24.481Z,28.40
2018-09-07T11:53:53.694Z,27.20
2018-09-07T11:56:22.989Z,26.60
2018-09-07T11:58:52.200Z,25.50
2018-09-07T12:01:21.364Z,24.70
2018-09-07T12:03:50.742Z,25.00
2018-09-07T12:06:19.946Z,26.20
2018-09-07T12:08:49.721Z,27.10
2018-09-07T12:11:19.196Z,26.50
2018-09-07T12:13:48.478Z,25.30
2018-09-07T12:16:17.635Z,24.30
2018-09-07T12:18:46.744Z,23.60
2018-09-07T12:21:16.054Z,22.80
2018-09-07T12:23:45.191Z,22.20
2018-09-07T12:26:14.305Z,21.50
2018-09-07T12:28:43.628Z,21.30
2018-09-07T12:31:14.797Z,21.50
2018-09-07T12:33:44.596Z,21.30
2018-09-07T12:36:13.944Z,21.10
2018-09-07T12:38:43.423Z,21.00
2018-09-07T12:41:14.492Z,20.70
2018-09-07T12:43:43.721Z,20.50
2018-09-07T12:46:12.849Z,20.30
2018-09-07T12:48:42.062Z,20.10
2018-09-07T12:51:11.231Z,20.10
2018-09-07T12:53:40.817Z,20.20
2018-09-07T12:56:09.911Z,20.10
2018-09-07T12:58:40.577Z,20.10
2018-09-07T13:01:10.147Z,20.10
2018-09-07T13:03:39.868Z,20.00
2018-09-07T13:06:09.116Z,20.00
2018-09-07T13:08:39.347Z,19.90
2018-09-07T13:11:08.568Z,19.90
2018-09-07T13:13:37.910Z,19.80
2018-09-07T13:16:06.999Z,19.80
2018-09-07T13:18:36.407Z,19.90
2018-09-07T13:21:05.518Z,19.90
2018-09-07T13:23:35.289Z,19.80
2018-09-07T13:26:04.497Z,19.70
2018-09-07T13:28:33.669Z,19.50
2018-09-07T13:31:02.814Z,19.70
2018-09-07T13:33:31.996Z,19.90
2018-09-07T13:36:01.164Z,20.10
2018-09-07T13:38:30.268Z,20.50
2018-09-07T13:40:59.498Z,20.60
2018-09-07T13:43:28.614Z,20.70
2018-09-07T13:45:57.805Z,21.00
2018-09-07T13:48:27.077Z,21.00
2018-09-07T13:50:56.391Z,21.30
2018-09-07T13:53:26.368Z,21.50
2018-09-07T13:55:55.655Z,21.50
2018-09-07T13:58:24.839Z,21.30
2018-09-07T14:00:54.029Z,20.90
2018-09-07T14:03:23.201Z,20.60
2018-09-07T14:05:52.455Z,20.50
2018-09-07T14:08:22.281Z,20.60
2018-09-07T14:10:51.460Z,20.60
2018-09-07T14:13:20.606Z,20.60
2018-09-07T14:15:50.020Z,20.60
2018-09-07T14:18:19.289Z,20.60
2018-09-07T14:20:48.473Z,20.80
2018-09-07T14:23:18.515Z,21.00
2018-09-07T14:25:48.609Z,20.90
2018-09-07T14:28:17.913Z,21.00
2018-09-07T14:30:47.267Z,21.10
2018-09-07T14:33:16.517Z,20.90
2018-09-07T14:35:46.287Z,20.80
2018-09-07T14:38:15.838Z,20.80
2018-09-07T14:40:45.660Z,20.60
2018-09-07T14:43:14.895Z,20.60
2018-09-07T14:45:44.037Z,20.80
2018-09-07T14:48:13.199Z,20.90
2018-09-07T14:50:42.344Z,21.00
2018-09-07T14:53:11.561Z,20.90
2018-09-07T14:55:42.833Z,20.90
2018-09-07T14:58:12.659Z,20.90
2018-09-07T15:00:41.792Z,20.80
2018-09-07T15:03:11.815Z,20.70
2018-09-07T15:05:41.039Z,20.60
2018-09-07T15:08:10.332Z,20.50
2018-09-07T15:10:39.539Z,20.60
2018-09-07T15:13:08.937Z,20.70
2018-09-07T15:15:38.261Z,20.70
2018-09-07T15:18:07.500Z,20.70
2018-09-07T15:20:37.056Z,20.80
2018-09-07T15:23:06.181Z,20.70
2018-09-07T15:25:35.389Z,20.70
2018-09-07T15:28:04.708Z,20.80
2018-09-07T15:30:33.867Z,20.80
2018-09-07T15:33:03.137Z,20.70
2018-09-07T15:35:32.608Z,20.70
2018-09-07T15:38:01.680Z,20.40
2018-09-07T15:40:30.813Z,20.30
2018-09-07T15:43:00.028Z,20.40
2018-09-07T15:45:29.244Z,20.20
2018-09-07T15:47:58.431Z,20.20
2018-09-07T15:50:27.540Z,20.40
2018-09-07T15:52:56.898Z,20.50
2018-09-07T15:55:26.231Z,20.40
2018-09-07T15:57:55.431Z,20.20
2018-09-07T16:00:24.675Z,20.00
2018-09-07T16:02:54.004Z,20.00
2018-09-07T16:05:23.189Z,20.10
2018-09-07T16:07:52.293Z,20.20
2018-09-07T16:10:21.959Z,20.30
2018-09-07T16:12:51.231Z,20.40
2018-09-07T16:15:20.372Z,20.30
2018-09-07T16:17:49.492Z,20.20
2018-09-07T16:20:18.709Z,20.20
2018-09-07T16:22:48.201Z,20.20
2018-09-07T16:25:18.037Z,20.30
2018-09-07T16:27:47.349Z,20.30
2018-09-07T16:30:16.610Z,20.20
2018-09-07T16:32:45.773Z,20.20
2018-09-07T16:35:14.941Z,19.90
2018-09-07T16:37:44.172Z,19.60
2018-09-07T16:40:13.320Z,19.40
2018-09-07T16:42:42.710Z,19.50
2018-09-07T16:45:12.598Z,19.60
2018-09-07T16:47:42.451Z,19.60
2018-09-07T16:50:11.543Z,19.70
2018-09-07T16:52:40.663Z,19.80
2018-09-07T16:55:09.780Z,19.80
2018-09-07T16:57:38.871Z,19.70
2018-09-07T17:00:08.167Z,19.70
2018-09-07T17:02:37.288Z,19.80
2018-09-07T17:05:06.789Z,19.80
2018-09-07T17:07:35.876Z,19.90
2018-09-07T17:10:05.172Z,19.90
2018-09-07T17:12:34.374Z,19.90
2018-09-07T17:15:03.756Z,19.80
2018-09-07T17:17:33.117Z,19.80
2018-09-07T17:20:02.448Z,19.70
2018-09-07T17:22:31.680Z,19.60
2018-09-07T17:25:00.860Z,19.50
2018-09-07T17:27:30.069Z,19.40
2018-09-07T17:29:59.254Z,19.50
2018-09-07T17:32:29.172Z,19.50
2018-09-07T17:34:58.341Z,19.50
2018-09-07T17:37:28.379Z,19.40
2018-09-07T17:39:57.503Z,19.20
2018-09-07T17:42:30.605Z,19.20
2018-09-07T17:44:59.749Z,19.20
2018-09-07T17:47:28.905Z,19.30
2018-09-07T17:49:58.137Z,19.40
2018-09-07T17:52:34.075Z,19.40
2018-09-07T17:55:03.272Z,19.40
2018-09-07T17:57:32.976Z,19.30
2018-09-07T18:00:02.650Z,19.30
2018-09-07T18:02:31.884Z,19.30
2018-09-07T18:05:01.075Z,19.20
2018-09-07T18:07:30.477Z,19.20
2018-09-07T18:10:00.636Z,19.20
2018-09-07T18:12:30.116Z,19.20
2018-09-07T18:15:00.805Z,19.20
2018-09-07T18:17:30.422Z,19.20
2018-09-07T18:19:59.742Z,19.10
2018-09-07T18:22:28.881Z,19.10
2018-09-07T18:24:58.259Z,19.00
2018-09-07T18:27:27.565Z,19.00
2018-09-07T18:29:56.757Z,19.00
2018-09-07T18:32:25.929Z,18.90
2018-09-07T18:34:55.727Z,18.90
2018-09-07T18:37:25.388Z,18.90
2018-09-07T18:39:54.544Z,18.80
2018-09-07T18:42:23.810Z,18.60
2018-09-07T18:44:53.146Z,18.60
2018-09-07T18:47:22.345Z,18.60
2018-09-07T18:49:51.518Z,18.50
2018-09-07T18:52:20.716Z,18.60
2018-09-07T18:54:49.891Z,18.60
2018-09-07T18:57:19.135Z,18.60
2018-09-07T18:59:48.571Z,18.70
2018-09-07T19:02:17.760Z,18.50
2018-09-07T19:04:47.697Z,18.50
2018-09-07T19:07:17.558Z,18.40
2018-09-07T19:09:47.039Z,18.40
2018-09-07T19:12:16.159Z,18.40
2018-09-07T19:14:45.582Z,18.30
2018-09-07T19:17:14.821Z,18.20
2018-09-07T19:19:44.067Z,18.10
2018-09-07T19:22:13.263Z,18.00
2018-09-07T19:24:42.995Z,18.00
2018-09-07T19:27:12.372Z,17.90
2018-09-07T19:29:43.077Z,18.00
2018-09-07T19:32:12.815Z,18.00
2018-09-07T19:34:41.936Z,18.00
2018-09-07T19:37:11.195Z,18.00
2018-09-07T19:39:40.456Z,18.00
2018-09-07T19:42:09.606Z,18.00
2018-09-07T19:44:39.013Z,18.00
2018-09-07T19:47:09.276Z,18.10
2018-09-07T19:49:38.608Z,18.10
2018-09-07T19:52:07.856Z,18.10
2018-09-07T19:54:37.857Z,18.00
2018-09-07T19:57:07.254Z,18.10
2018-09-07T19:59:37.656Z,18.10
2018-09-07T20:02:07.104Z,18.10
2018-09-07T20:04:36.557Z,18.00
2018-09-07T20:07:05.737Z,18.00
2018-09-07T20:09:35.039Z,18.00
2018-09-07T20:12:04.345Z,18.00
2018-09-07T20:14:33.610Z,18.00
2018-09-07T20:17:02.720Z,18.00
2018-09-07T20:19:31.860Z,17.90
2018-09-07T20:22:02.164Z,17.90
2018-09-07T20:24:31.276Z,17.90
2018-09-07T20:27:00.435Z,17.70
2018-09-07T20:29:30.090Z,17.70
2018-09-07T20:31:59.340Z,17.70
2018-09-07T20:34:28.487Z,17.70
2018-09-07T20:36:57.689Z,17.70
2018-09-07T20:39:26.828Z,17.60
2018-09-07T20:41:55.991Z,17.60
2018-09-07T20:44:25.180Z,17.50
2018-09-07T20:46:54.892Z,17.40
2018-09-07T20:49:24.145Z,17.40
2018-09-07T20:51:53.799Z,17.50
2018-09-07T20:54:23.182Z,17.40
2018-09-07T20:56:52.625Z,17.30
2018-09-07T20:59:21.854Z,17.30
2018-09-07T21:01:51.012Z,17.30
2018-09-07T21:04:21.568Z,17.30
2018-09-07T21:06:50.841Z,17.20
2018-09-07T21:09:20.034Z,17.10
2018-09-07T21:11:49.345Z,17.10
2018-09-07T21:14:18.693Z,17.00
2018-09-07T21:16:47.827Z,17.00
2018-09-07T21:19:17.004Z,17.00
2018-09-07T21:21:46.871Z,17.00
2018-09-07T21:24:16.857Z,16.90
2018-09-07T21:26:46.048Z,16.90
2018-09-07T21:29:15.169Z,16.90
2018-09-07T21:31:44.322Z,16.70
2018-09-07T21:34:15.081Z,16.60
2018-09-07T21:36:44.217Z,16.60
2018-09-07T21:39:13.495Z,16.50
2018-09-07T21:41:42.994Z,16.40
2018-09-07T21:44:12.220Z,16.50
2018-09-07T21:46:42.372Z,16.50
2018-09-07T21:49:11.412Z,16.50
2018-09-07T21:51:40.599Z,16.40
2018-09-07T21:54:09.760Z,16.40
2018-09-07T21:56:38.872Z,16.30
2018-09-07T21:59:08.964Z,16.40
2018-09-07T22:01:38.494Z,16.50
2018-09-07T22:04:07.643Z,16.60
2018-09-07T22:06:42.686Z,16.60
2018-09-07T22:09:11.971Z,16.50
2018-09-07T22:11:41.187Z,16.40
2018-09-07T22:14:10.284Z,16.40
2018-09-07T22:16:39.446Z,16.40
2018-09-07T22:19:08.717Z,16.40
2018-09-07T22:21:38.180Z,16.40
2018-09-07T22:24:07.898Z,16.40
2018-09-07T22:26:37.023Z,16.40
2018-09-07T22:29:06.141Z,16.50
2018-09-07T22:31:35.249Z,16.40
2018-09-07T22:34:04.475Z,16.30
2018-09-07T22:36:33.672Z,16.20
2018-09-07T22:39:03.726Z,15.90
2018-09-07T22:41:32.841Z,15.60
2018-09-07T22:44:06.912Z,15.40
2018-09-07T22:46:37.319Z,15.40
2018-09-07T22:49:06.620Z,15.60
2018-09-07T22:51:36.433Z,15.80
2018-09-07T22:54:05.622Z,15.80
2018-09-07T22:56:35.573Z,15.80
2018-09-07T22:59:04.774Z,15.90
2018-09-07T23:01:33.983Z,15.90
2018-09-07T23:04:03.160Z,15.90
2018-09-07T23:06:37.699Z,16.00
2018-09-07T23:09:08.144Z,16.00
2018-09-07T23:11:37.242Z,16.00
2018-09-07T23:14:06.428Z,16.00
2018-09-07T23:16:35.621Z,16.00
2018-09-07T23:19:04.761Z,16.00
2018-09-07T23:21:35.552Z,16.10
2018-09-07T23:24:04.719Z,16.00
2018-09-07T23:26:33.823Z,16.10
2018-09-07T23:29:03.479Z,16.10
2018-09-07T23:31:32.656Z,16.10
2018-09-07T23:34:01.773Z,16.10
2018-09-07T23:36:30.889Z,16.00
2018-09-07T23:38:59.988Z,16.00
2018-09-07T23:41:29.075Z,16.00
2018-09-07T23:43:58.196Z,15.90
2018-09-07T23:46:27.281Z,15.90
2018-09-07T23:48:56.474Z,15.90
2018-09-07T23:51:26.319Z,16.00
2018-09-07T23:53:55.487Z,15.80
2018-09-07T23:56:24.672Z,15.70
2018-09-07T23:58:53.879Z,15.70
